Time;durP1;ratioP1;P1;durP2;ratioP2;P2;SDS_P1;SDS_P2;PMS_P1;PMS_P2;Temp;Humidity;BMP_temperature;BMP_pressure;BME280_temperature;BME280_humidity;BME280_pressure;Samples;Min_cycle;Max_cycle;Signal;HPM_P1;HPM_P2
2024/01/24 00:00:06;;;;;;;3.83;3.45;;;;;;;-1.51;88.58;100882.16;5080046;28;20065;-75
2024/01/24 00:02:38;;;;;;;6.63;5.03;;;;;;;-1.49;88.34;100869.75;5114876;28;20047;-74
2024/01/24 00:05:08;;;;;;;7.47;6.75;;;;;;;-1.53;88.42;100862.78;5114692;28;20081;-75
2024/01/24 00:07:38;;;;;;;6.00;3.70;;;;;;;-1.85;87.92;100823.16;5114397;28;20040;-75
2024/01/24 00:10:10;;;;;;;3.15;2.95;;;;;;;-1.67;88.08;100874.41;5114566;27;20040;-74
2024/01/24 00:12:39;;;;;;;3.72;3.42;;;;;;;-1.63;88.49;100876.34;5114684;28;20051;-74
2024/01/24 00:15:08;;;;;;;6.00;5.43;;;;;;;-1.60;88.53;100873.19;5096500;28;20047;-74
2024/01/24 00:17:37;;;;;;;7.85;5.40;;;;;;;-1.59;88.30;100870.78;5115056;28;20035;-74
2024/01/24 00:20:07;;;;;;;14.90;6.85;;;;;;;-1.55;88.77;100870.22;5113068;28;20071;-74
2024/01/24 00:22:36;;;;;;;13.77;6.97;;;;;;;-1.58;88.48;100867.50;5114270;28;20044;-74
2024/01/24 00:25:07;;;;;;;10.47;5.80;;;;;;;-1.57;88.64;100871.75;5114768;28;20040;-74
2024/01/24 00:27:36;;;;;;;4.55;3.85;;;;;;;-1.62;88.74;100878.09;5115105;28;20093;-74
2024/01/24 00:30:06;;;;;;;4.67;3.33;;;;;;;-1.64;88.65;100874.63;5114021;28;20067;-75
2024/01/24 00:32:34;;;;;;;6.95;6.40;;;;;;;-1.68;88.43;100871.81;5114010;28;20513;-75
2024/01/24 00:35:04;;;;;;;15.70;7.80;;;;;;;-1.68;88.54;100877.66;5114373;28;20032;-75
2024/01/24 00:37:33;;;;;;;6.25;5.05;;;;;;;-1.64;88.49;100877.13;5114146;28;20451;-75
2024/01/24 00:40:02;;;;;;;15.27;8.65;;;;;;;-1.66;88.30;100876.16;5096075;28;20460;-75
2024/01/24 00:42:33;;;;;;;5.68;4.50;;;;;;;-1.72;88.48;100873.22;5114610;28;20096;-76
2024/01/24 00:45:03;;;;;;;7.43;4.38;;;;;;;-1.66;88.55;100865.28;5113174;28;20056;-76
2024/01/24 00:47:32;;;;;;;3.13;2.92;;;;;;;-1.71;88.25;100852.47;5114250;28;20027;-75
2024/01/24 00:50:01;;;;;;;3.63;3.33;;;;;;;-1.72;88.51;100855.72;5112288;28;20044;-74
2024/01/24 00:52:30;;;;;;;4.43;4.15;;;;;;;-1.76;88.45;100857.91;5112753;28;20076;-75
2024/01/24 00:54:59;;;;;;;14.48;8.07;;;;;;;-1.74;88.27;100857.25;5114248;28;20036;-75
2024/01/24 00:57:27;;;;;;;2.70;2.60;;;;;;;-1.70;88.43;100854.19;5113661;28;20051;-75
2024/01/24 00:59:58;;;;;;;7.30;6.70;;;;;;;-1.68;88.40;100852.63;5114540;28;20050;-75
2024/01/24 01:02:28;;;;;;;3.72;3.50;;;;;;;-1.73;88.49;100834.00;5118435;28;20039;-75
2024/01/24 01:04:57;;;;;;;;;;;;;;;-1.63;88.52;100826.28;5118519;28;20044;-75
2024/01/24 01:07:25;;;;;;;4.57;4.28;;;;;;;-1.63;88.32;100826.28;5118261;28;19927;-75
2024/01/24 01:09:54;;;;;;;2.97;2.77;;;;;;;-1.63;88.13;100815.44;5117826;28;20043;-74
2024/01/24 01:12:23;;;;;;;31.70;8.63;;;;;;;-1.61;88.58;100819.75;5118137;27;20364;-75
2024/01/24 01:14:52;;;;;;;5.35;4.68;;;;;;;-1.57;88.58;100816.69;5117813;28;20489;-75
2024/01/24 01:17:23;;;;;;;6.10;5.60;;;;;;;-1.53;88.54;100818.63;5116337;28;20035;-75
2024/01/24 01:19:52;;;;;;;10.88;4.15;;;;;;;-1.54;88.44;100809.41;5118410;28;20039;-75
2024/01/24 01:22:21;;;;;;;14.75;7.85;;;;;;;-1.47;88.95;100809.03;5117869;28;20039;-75
2024/01/24 01:24:50;;;;;;;11.10;10.00;;;;;;;-1.43;88.80;100795.94;5117625;28;20514;-75
2024/01/24 01:27:19;;;;;;;8.13;7.32;;;;;;;-1.39;88.88;100807.88;5117625;28;20131;-75
2024/01/24 01:29:48;;;;;;;6.88;6.15;;;;;;;-1.38;88.83;100801.22;5118007;27;20038;-75
2024/01/24 01:32:17;;;;;;;5.18;4.35;;;;;;;-1.37;89.17;100795.47;5116344;28;20040;-75
2024/01/24 01:34:47;;;;;;;6.30;5.10;;;;;;;-1.44;88.93;100784.16;5117866;28;20040;-75
2024/01/24 01:37:16;;;;;;;10.68;7.18;;;;;;;-1.98;88.83;100695.56;5117678;28;20051;-75
2024/01/24 01:39:45;;;;;;;5.30;4.90;;;;;;;-1.51;89.11;100769.53;5117767;27;20039;-75
2024/01/24 01:42:14;;;;;;;10.52;8.77;;;;;;;-1.46;89.36;100770.69;5116048;28;20028;-75
2024/01/24 01:44:46;;;;;;;5.43;4.95;;;;;;;-1.41;89.67;100774.34;5116386;28;20084;-75
2024/01/24 01:47:16;;;;;;;7.78;7.18;;;;;;;-1.54;89.18;100736.81;5117551;28;20494;-75
2024/01/24 01:49:47;;;;;;;7.07;6.47;;;;;;;-1.41;89.73;100763.47;5098905;28;20048;-75
2024/01/24 01:52:17;;;;;;;5.85;5.38;;;;;;;-1.49;89.70;100739.63;5117570;28;20035;-74
2024/01/24 01:54:49;;;;;;;6.75;2.97;;;;;;;-1.31;90.00;100764.91;5117386;28;20048;-75
2024/01/24 01:57:18;;;;;;;14.10;5.30;;;;;;;-1.28;90.16;100745.97;5116820;28;20048;-75
2024/01/24 01:59:47;;;;;;;4.90;4.57;;;;;;;-1.28;90.06;100738.47;5117042;28;20039;-74
2024/01/24 02:02:17;;;;;;;10.93;5.28;;;;;;;-1.32;89.96;100733.16;5117273;28;20043;-75
2024/01/24 02:04:47;;;;;;;8.38;5.80;;;;;;;-1.34;90.67;100737.22;5117188;28;20059;-74
2024/01/24 02:07:16;;;;;;;6.00;3.97;;;;;;;-1.26;90.36;100753.56;5115790;28;20464;-74
2024/01/24 02:09:45;;;;;;;3.67;3.33;;;;;;;-1.24;90.66;100760.41;5116942;28;20131;-74
2024/01/24 02:12:14;;;;;;;5.65;2.63;;;;;;;-1.22;90.52;100753.84;5115285;28;20036;-75
2024/01/24 02:14:43;;;;;;;1.55;1.45;;;;;;;-1.19;90.50;100740.66;5116742;28;20093;-75
2024/01/24 02:17:12;;;;;;;1.35;1.27;;;;;;;-1.13;90.78;100726.91;5116924;28;20043;-74
2024/01/24 02:19:41;;;;;;;2.30;2.13;;;;;;;-1.15;90.77;100713.41;5116731;28;20047;-74
2024/01/24 02:22:11;;;;;;;5.65;4.78;;;;;;;-1.11;90.80;100715.34;5116921;28;20047;-74
2024/01/24 02:24:42;;;;;;;9.35;8.40;;;;;;;-1.07;90.96;100713.88;5116544;28;20047;-74
2024/01/24 02:27:11;;;;;;;4.82;4.45;;;;;;;-1.07;90.85;100708.88;5115440;28;20051;-75
2024/01/24 02:29:40;;;;;;;5.60;4.77;;;;;;;-1.08;91.06;100697.97;5115281;28;20088;-75
2024/01/24 02:32:09;;;;;;;7.05;6.47;;;;;;;-1.12;90.91;100707.72;5116365;28;20447;-76
2024/01/24 02:34:37;;;;;;;5.77;4.87;;;;;;;-1.10;90.96;100688.63;5114805;28;20156;-76
2024/01/24 02:37:07;;;;;;;5.97;5.47;;;;;;;-1.18;90.94;100667.28;5116689;28;20063;-75
2024/01/24 02:39:36;;;;;;;4.27;3.97;;;;;;;-1.11;91.05;100669.38;5116267;28;20031;-76
2024/01/24 02:42:08;;;;;;;2.13;1.65;;;;;;;-1.05;90.95;100657.22;5116379;28;20124;-76
2024/01/24 02:44:37;;;;;;;4.50;3.58;;;;;;;-0.99;91.05;100655.97;5116241;28;20044;-76
2024/01/24 02:47:07;;;;;;;5.43;4.93;;;;;;;-1.00;91.57;100638.31;5116339;28;20051;-76
2024/01/24 02:49:36;;;;;;;8.32;7.45;;;;;;;-0.94;91.05;100641.22;5081288;28;20051;-76
2024/01/24 02:52:05;;;;;;;4.18;2.67;;;;;;;-0.94;91.02;100623.69;5115849;28;20039;-76
2024/01/24 02:54:36;;;;;;;;;;;;;;;-0.89;91.23;100622.31;5117487;28;20501;-76
2024/01/24 02:57:07;;;;;;;5.13;4.63;;;;;;;-0.94;91.01;100606.16;5115847;28;19919;-75
2024/01/24 02:59:36;;;;;;;4.90;4.30;;;;;;;-0.90;91.07;100603.91;5116224;28;20039;-75
2024/01/24 03:02:05;;;;;;;7.23;6.50;;;;;;;-0.87;91.25;100605.72;5116043;28;20046;-75
2024/01/24 03:04:34;;;;;;;9.82;6.20;;;;;;;-0.89;91.09;100603.13;5116003;28;20040;-75
2024/01/24 03:07:02;;;;;;;3.30;3.00;;;;;;;-0.87;90.99;100595.72;5115905;28;20040;-75
2024/01/24 03:09:31;;;;;;;8.07;4.32;;;;;;;-0.88;91.38;100593.97;5114525;28;20036;-74
2024/01/24 03:12:00;;;;;;;12.67;3.83;;;;;;;-0.89;91.04;100597.25;5114186;28;20504;-74
2024/01/24 03:14:30;;;;;;;6.77;6.03;;;;;;;-0.94;91.04;100593.63;5114362;28;20758;-74
2024/01/24 03:17:00;;;;;;;20.00;4.97;;;;;;;-0.85;91.11;100605.03;5115468;28;20302;-74
2024/01/24 03:19:29;;;;;;;2.30;2.17;;;;;;;-0.85;91.05;100601.66;5115425;28;20493;-75
2024/01/24 03:21:59;;;;;;;6.35;5.60;;;;;;;-0.86;91.05;100592.41;5115542;28;20044;-75
2024/01/24 03:24:28;;;;;;;3.90;3.60;;;;;;;-1.55;90.83;100479.81;5114800;28;20067;-76
2024/01/24 03:26:57;;;;;;;5.35;4.90;;;;;;;-0.85;91.05;100594.16;5115193;28;20036;-75
2024/01/24 03:29:25;;;;;;;2.08;1.98;;;;;;;-0.94;90.92;100569.44;5115507;28;20028;-76
2024/01/24 03:31:56;;;;;;;4.27;3.87;;;;;;;-0.83;90.97;100607.63;5113824;28;20043;-76
2024/01/24 03:34:30;;;;;;;5.78;5.35;;;;;;;-0.86;90.79;100582.38;5115695;28;20048;-75
2024/01/24 03:36:59;;;;;;;9.00;5.18;;;;;;;-0.87;90.90;100576.53;5114217;28;20044;-76
2024/01/24 03:39:29;;;;;;;5.32;4.90;;;;;;;-0.87;90.89;100565.66;5097182;28;20036;-75
2024/01/24 03:41:57;;;;;;;7.07;4.90;;;;;;;-0.81;91.13;100566.00;5115518;28;20371;-76
2024/01/24 03:44:25;;;;;;;4.95;4.40;;;;;;;-0.81;91.19;100563.47;5114942;28;20087;-76
2024/01/24 03:46:56;;;;;;;2.58;2.38;;;;;;;-0.78;91.04;100563.66;5113877;28;20032;-76
2024/01/24 03:49:25;;;;;;;3.35;3.08;;;;;;;-0.79;91.21;100555.28;5115279;28;20126;-76
2024/01/24 03:51:54;;;;;;;5.85;2.10;;;;;;;-0.73;91.17;100554.78;5114564;28;20402;-75
2024/01/24 03:54:23;;;;;;;6.55;4.50;;;;;;;-0.65;91.44;100548.56;5113825;28;20134;-75
2024/01/24 03:56:52;;;;;;;3.58;3.38;;;;;;;-0.74;91.49;100538.00;5114641;28;20043;-75
2024/01/24 03:59:21;;;;;;;3.30;3.10;;;;;;;-0.67;91.32;100535.06;5115252;28;20038;-75
2024/01/24 04:01:50;;;;;;;5.28;4.32;;;;;;;-0.67;91.39;100545.09;5114769;28;20040;-76
2024/01/24 04:04:20;;;;;;;5.47;4.65;;;;;;;-0.61;91.62;100545.47;5113443;28;20036;-75
2024/01/24 04:06:49;;;;;;;6.30;5.47;;;;;;;-0.62;91.67;100541.22;5113453;28;20397;-75
2024/01/24 04:09:18;;;;;;;3.65;3.20;;;;;;;-0.52;91.70;100551.00;5114750;28;20046;-75
2024/01/24 04:11:48;;;;;;;3.97;3.67;;;;;;;-0.49;91.26;100558.69;5113383;28;20040;-75
2024/01/24 04:14:17;;;;;;;6.82;4.40;;;;;;;-0.45;91.55;100558.06;5096875;28;20042;-74
2024/01/24 04:16:46;;;;;;;4.05;3.53;;;;;;;-0.43;91.46;100546.47;5114485;28;20108;-74
2024/01/24 04:19:14;;;;;;;4.20;3.83;;;;;;;-0.37;91.46;100541.84;5114660;28;20043;-73
2024/01/24 04:21:45;;;;;;;3.58;3.28;;;;;;;-0.37;91.46;100530.94;5113218;28;20144;-73
2024/01/24 04:24:14;;;;;;;4.10;3.72;;;;;;;-0.35;91.66;100539.41;5114700;28;20527;-73
2024/01/24 04:26:43;;;;;;;8.90;6.57;;;;;;;-0.35;91.45;100539.41;5114529;28;20040;-75
2024/01/24 04:29:12;;;;;;;6.40;5.75;;;;;;;-0.34;91.53;100534.50;5113325;28;20391;-74
2024/01/24 04:31:42;;;;;;;4.35;3.60;;;;;;;-0.50;92.04;100493.41;5112831;28;20481;-73
2024/01/24 04:34:11;;;;;;;7.22;6.10;;;;;;;-0.28;91.54;100527.28;5114222;28;20036;-73
2024/01/24 04:36:41;;;;;;;2.85;2.65;;;;;;;-0.62;91.98;100458.50;5113059;28;20074;-73
2024/01/24 04:39:12;;;;;;;3.40;3.13;;;;;;;-0.18;91.75;100518.63;5114683;28;20047;-72
2024/01/24 04:41:40;;;;;;;4.53;4.15;;;;;;;-0.14;91.54;100521.38;5114393;28;20112;-72
2024/01/24 04:44:10;;;;;;;2.63;2.50;;;;;;;-0.13;91.63;100515.59;5113021;28;20042;-71
2024/01/24 04:46:39;;;;;;;6.15;4.30;;;;;;;-0.11;91.73;100516.53;5113032;28;20122;-72
2024/01/24 04:49:08;;;;;;;;;;;;;;;-0.08;91.79;100515.84;5114907;28;20485;-72
2024/01/24 04:51:57;;;;;;;5.53;4.90;;;;;;;-0.12;91.92;100512.28;5113913;28;19927;-71
2024/01/24 04:54:28;;;;;;;5.30;4.82;;;;;;;-0.50;91.84;100456.69;5114146;28;20047;-71
2024/01/24 04:56:57;;;;;;;3.70;2.70;;;;;;;-0.10;91.90;100515.75;5113680;28;20043;-72
2024/01/24 04:59:25;;;;;;;24.90;5.27;;;;;;;-0.03;92.35;100512.81;5114201;28;20039;-70
2024/01/24 05:01:54;;;;;;;3.47;3.20;;;;;;;-0.02;92.06;100512.03;5113850;28;20056;-70
2024/01/24 05:04:23;;;;;;;6.90;4.77;;;;;;;0.00;92.06;100504.59;5114091;28;20275;-70
2024/01/24 05:06:52;;;;;;;8.82;5.38;;;;;;;0.02;92.14;100502.16;5112807;28;20298;-71
2024/01/24 05:09:21;;;;;;;4.47;4.07;;;;;;;0.05;92.20;100498.16;5113744;28;20048;-72
2024/01/24 05:11:51;;;;;;;2.95;2.75;;;;;;;0.07;92.44;100491.59;5113694;28;20509;-71
2024/01/24 05:14:20;;;;;;;4.10;3.30;;;;;;;0.04;92.04;100491.44;5114314;28;20428;-70
2024/01/24 05:16:49;;;;;;;6.83;6.20;;;;;;;0.10;92.26;100493.41;5113920;28;20444;-71
2024/01/24 05:19:19;;;;;;;8.70;5.18;;;;;;;0.12;92.65;100489.34;5113699;28;20397;-70
2024/01/24 05:21:48;;;;;;;6.97;5.72;;;;;;;0.12;92.01;100490.16;5114036;28;20123;-71
2024/01/24 05:24:17;;;;;;;4.05;3.72;;;;;;;0.07;92.43;100475.69;5113956;28;20443;-71
2024/01/24 05:26:46;;;;;;;3.40;3.17;;;;;;;0.11;92.08;100485.97;5113501;28;20043;-70
2024/01/24 05:29:19;;;;;;;2.70;2.47;;;;;;;0.16;92.48;100496.22;5114173;28;20044;-70
2024/01/24 05:31:48;;;;;;;4.10;3.70;;;;;;;0.14;92.10;100485.25;5113674;28;20040;-69
2024/01/24 05:34:16;;;;;;;6.88;4.97;;;;;;;0.15;92.79;100477.78;5113948;28;20035;-71
2024/01/24 05:36:46;;;;;;;9.02;4.57;;;;;;;0.22;92.42;100476.47;5113767;28;20035;-70
2024/01/24 05:39:15;;;;;;;8.13;6.43;;;;;;;0.21;92.79;100467.22;5113550;28;20485;-69
2024/01/24 05:41:44;;;;;;;6.30;5.28;;;;;;;0.23;92.81;100463.16;5113486;28;20397;-69
2024/01/24 05:44:13;;;;;;;13.63;6.40;;;;;;;0.24;92.55;100457.34;5113453;28;20047;-71
2024/01/24 05:46:43;;;;;;;4.25;3.70;;;;;;;0.29;92.71;100448.41;5112430;28;20055;-70
2024/01/24 05:49:12;;;;;;;3.60;3.30;;;;;;;0.31;92.89;100437.66;5117303;28;20075;-69
2024/01/24 05:51:42;;;;;;;14.90;8.10;;;;;;;0.34;92.73;100436.94;5117499;28;20035;-71
2024/01/24 05:54:11;;;;;;;15.88;5.25;;;;;;;0.37;93.03;100427.06;5115824;28;20451;-71
2024/01/24 05:56:41;;;;;;;7.72;6.68;;;;;;;0.35;92.90;100409.44;5117014;28;20040;-69
2024/01/24 05:59:10;;;;;;;7.73;4.40;;;;;;;0.39;92.93;100418.84;5116765;28;20047;-69
2024/01/24 06:01:45;;;;;;;5.28;4.05;;;;;;;0.40;93.16;100412.16;5117258;28;20047;-69
2024/01/24 06:04:14;;;;;;;4.13;3.72;;;;;;;0.34;92.88;100386.75;5117550;28;20056;-69
2024/01/24 06:06:43;;;;;;;5.57;4.30;;;;;;;0.46;93.04;100397.41;5116836;28;20039;-69
2024/01/24 06:09:12;;;;;;;4.85;4.53;;;;;;;0.48;93.06;100410.94;5116812;28;20081;-69
2024/01/24 06:11:41;;;;;;;3.77;3.47;;;;;;;0.50;92.92;100392.66;5115531;28;20055;-70
2024/01/24 06:14:10;;;;;;;3.67;3.37;;;;;;;0.44;93.54;100359.69;5116701;28;20638;-69
2024/01/24 06:16:39;;;;;;;4.25;3.88;;;;;;;0.45;93.43;100379.00;5116870;28;20046;-69
2024/01/24 06:19:09;;;;;;;3.90;3.60;;;;;;;0.58;93.23;100393.00;5116616;28;20043;-71
2024/01/24 06:21:38;;;;;;;7.50;5.53;;;;;;;0.27;93.69;100339.53;5116846;28;20040;-70
2024/01/24 06:24:07;;;;;;;6.20;5.80;;;;;;;0.61;93.86;100385.63;5117097;28;20126;-70
2024/01/24 06:26:37;;;;;;;3.53;3.13;;;;;;;0.67;93.13;100368.38;5115523;28;20048;-71
2024/01/24 06:29:08;;;;;;;7.97;2.90;;;;;;;0.69;93.71;100361.75;5115473;28;20056;-69
2024/01/24 06:31:36;;;;;;;18.60;4.80;;;;;;;0.73;93.56;100361.13;5116376;28;20046;-69
2024/01/24 06:34:05;;;;;;;1.87;1.73;;;;;;;0.77;93.85;100365.50;5116546;28;20040;-70
2024/01/24 06:36:36;;;;;;;5.15;4.63;;;;;;;0.78;93.74;100372.25;5116594;28;20039;-68
2024/01/24 06:39:06;;;;;;;19.92;5.55;;;;;;;0.83;93.58;100369.97;5116475;28;20417;-69
2024/01/24 06:41:34;;;;;;;8.35;4.85;;;;;;;0.83;93.40;100370.84;5116540;28;20067;-71
2024/01/24 06:44:05;;;;;;;6.33;5.80;;;;;;;0.84;94.26;100351.59;5116439;28;20066;-71
2024/01/24 06:46:41;;;;;;;5.55;5.05;;;;;;;0.86;94.26;100355.91;5116168;28;20553;-69
2024/01/24 06:49:11;;;;;;;2.97;2.67;;;;;;;0.87;94.60;100355.13;5116092;28;20455;-70
2024/01/24 06:51:41;;;;;;;;;;;;;;;0.89;93.80;100357.72;5115420;28;20046;-70
2024/01/24 06:54:12;;;;;;;3.55;3.10;;;;;;;0.91;94.43;100349.44;5115916;28;19920;-70
2024/01/24 06:56:43;;;;;;;4.88;4.50;;;;;;;0.91;94.06;100346.91;5115798;28;20069;-68
2024/01/24 06:59:13;;;;;;;4.43;3.95;;;;;;;0.92;94.58;100350.31;5114943;28;20079;-70
2024/01/24 07:01:42;;;;;;;5.25;4.75;;;;;;;0.92;94.33;100331.06;5114855;28;20053;-68
2024/01/24 07:04:11;;;;;;;3.67;3.38;;;;;;;0.93;94.70;100322.75;5115925;28;20043;-69
2024/01/24 07:06:42;;;;;;;4.57;4.17;;;;;;;0.97;94.31;100323.75;5116575;28;20036;-71
2024/01/24 07:09:11;;;;;;;2.58;2.38;;;;;;;0.98;94.29;100318.81;5116068;28;20376;-70
2024/01/24 07:11:40;;;;;;;10.02;5.15;;;;;;;0.99;94.77;100328.06;5115830;28;20088;-71
2024/01/24 07:14:09;;;;;;;3.78;3.42;;;;;;;1.01;94.33;100344.06;5115400;28;20036;-69
2024/01/24 07:16:38;;;;;;;3.47;2.57;;;;;;;1.03;94.29;100339.97;5115427;28;20047;-71
2024/01/24 07:19:08;;;;;;;1.75;1.65;;;;;;;1.04;94.63;100326.63;5114826;28;20047;-69
2024/01/24 07:21:37;;;;;;;6.10;5.40;;;;;;;0.87;94.64;100297.31;5116159;28;20051;-70
2024/01/24 07:24:08;;;;;;;2.22;2.03;;;;;;;1.06;94.93;100332.59;5115289;28;20448;-68
2024/01/24 07:26:37;;;;;;;2.00;1.90;;;;;;;1.06;95.07;100325.03;5115569;28;20060;-69
2024/01/24 07:29:06;;;;;;;4.57;4.22;;;;;;;1.11;95.12;100333.66;5115516;28;20505;-70
2024/01/24 07:31:34;;;;;;;3.83;3.00;;;;;;;1.12;94.69;100325.34;5115213;28;20092;-68
2024/01/24 07:34:03;;;;;;;3.83;3.47;;;;;;;1.10;95.04;100316.88;5114006;28;20276;-68
2024/01/24 07:36:32;;;;;;;7.72;3.72;;;;;;;1.12;94.71;100309.41;5115404;28;20039;-71
2024/01/24 07:39:04;;;;;;;8.60;4.47;;;;;;;1.12;95.33;100294.31;5115235;28;20483;-70
2024/01/24 07:41:35;;;;;;;4.03;3.63;;;;;;;1.18;94.77;100282.88;5115286;28;20489;-68
2024/01/24 07:44:04;;;;;;;0.68;0.68;;;;;;;1.25;95.63;100272.31;5115237;28;20058;-67
2024/01/24 07:46:35;;;;;;;3.80;2.70;;;;;;;1.28;95.61;100292.56;5115525;28;20131;-71
2024/01/24 07:49:04;;;;;;;2.20;1.75;;;;;;;1.27;95.72;100293.34;5096040;28;20451;-71
2024/01/24 07:51:34;;;;;;;8.68;2.60;;;;;;;1.27;95.81;100295.88;5115017;28;20075;-69
2024/01/24 07:54:03;;;;;;;2.92;2.72;;;;;;;1.30;95.29;100301.03;5114930;28;20063;-71
2024/01/24 07:56:32;;;;;;;2.60;2.38;;;;;;;0.95;94.94;100230.72;5114674;28;20055;-70
2024/01/24 07:59:04;;;;;;;4.28;2.90;;;;;;;1.32;95.11;100279.34;5113692;28;20039;-71
2024/01/24 08:01:33;;;;;;;11.15;2.92;;;;;;;1.20;95.82;100262.88;5114666;28;20088;-70
2024/01/24 08:04:03;;;;;;;5.30;4.15;;;;;;;1.32;96.04;100279.34;5114728;28;20074;-68
2024/01/24 08:06:33;;;;;;;2.55;2.35;;;;;;;1.25;95.43;100272.31;5114828;28;20050;-69
2024/01/24 08:09:03;;;;;;;1.67;1.58;;;;;;;1.30;95.83;100290.13;5113138;28;20113;-69
2024/01/24 08:11:32;;;;;;;6.85;2.35;;;;;;;1.28;95.48;100297.59;5114402;28;20482;-69
2024/01/24 08:14:02;;;;;;;2.25;2.05;;;;;;;1.30;95.26;100297.66;5114476;28;20102;-71
2024/01/24 08:16:31;;;;;;;4.63;2.47;;;;;;;1.29;96.31;100289.28;5114824;28;20047;-70
2024/01/24 08:19:00;;;;;;;3.08;2.40;;;;;;;1.33;96.16;100286.09;5096230;28;20112;-68
2024/01/24 08:21:30;;;;;;;4.00;3.60;;;;;;;1.33;96.35;100281.06;5114259;28;20485;-71
2024/01/24 08:23:58;;;;;;;2.20;2.00;;;;;;;1.33;96.21;100278.56;5109779;28;20054;-69
2024/01/24 08:26:27;;;;;;;1.53;1.43;;;;;;;1.33;95.72;100285.25;5114340;28;20043;-71
2024/01/24 08:28:59;;;;;;;1.90;1.77;;;;;;;1.31;96.06;100276.78;5112450;28;20054;-70
2024/01/24 08:31:29;;;;;;;2.35;2.15;;;;;;;1.32;95.69;100268.41;5114402;28;20077;-69
2024/01/24 08:33:58;;;;;;;4.40;2.95;;;;;;;1.34;96.48;100255.13;5114480;28;20035;-70
2024/01/24 08:36:28;;;;;;;5.43;4.88;;;;;;;1.38;95.79;100258.66;5101719;28;20036;-69
2024/01/24 08:39:02;;;;;;;2.88;2.67;;;;;;;1.36;96.61;100265.28;5095414;28;20066;-70
2024/01/24 08:41:31;;;;;;;6.10;4.35;;;;;;;1.35;96.47;100261.88;5114425;28;20426;-69
2024/01/24 08:44:00;;;;;;;3.07;2.57;;;;;;;1.42;95.86;100265.53;5114216;28;20062;-69
2024/01/24 08:46:30;;;;;;;3.10;2.17;;;;;;;1.40;96.51;100241.97;5113838;28;20032;-70
2024/01/24 08:48:59;;;;;;;2.65;1.85;;;;;;;1.45;96.76;100263.16;5114358;28;20329;-69
2024/01/24 08:51:31;;;;;;;1.95;1.85;;;;;;;1.47;95.72;100238.06;5114256;28;20135;-70
2024/01/24 08:54:01;;;;;;;3.42;3.08;;;;;;;1.47;96.46;100245.63;5113761;28;20042;-70
2024/01/24 08:56:31;;;;;;;1.20;1.10;;;;;;;1.49;96.61;100262.50;5113517;28;20054;-69
2024/01/24 08:59:00;;;;;;;3.42;2.17;;;;;;;1.47;96.48;100258.19;5113785;28;20039;-71
2024/01/24 09:01:30;;;;;;;5.22;4.07;;;;;;;1.49;95.89;100251.59;5114122;28;20035;-72
2024/01/24 09:04:00;;;;;;;3.25;2.80;;;;;;;1.48;96.68;100248.22;5112940;28;20054;-70
2024/01/24 09:06:30;;;;;;;4.00;2.42;;;;;;;1.56;96.51;100258.63;5112647;28;20040;-71
2024/01/24 09:08:59;;;;;;;5.53;4.63;;;;;;;1.19;95.89;100210.88;5113981;28;20478;-71
2024/01/24 09:11:28;;;;;;;8.43;7.63;;;;;;;1.50;96.04;100244.09;5112129;28;20162;-70
2024/01/24 09:14:12;;;;;;;6.53;5.03;;;;;;;1.56;96.41;100259.44;5113627;28;20040;-72
2024/01/24 09:16:43;;;;;;;8.43;5.38;;;;;;;1.59;96.72;100243.63;5113894;28;20040;-69
2024/01/24 09:19:12;;;;;;;3.97;3.67;;;;;;;1.55;96.20;100231.72;5114122;28;20510;-70
2024/01/24 09:21:41;;;;;;;5.75;4.53;;;;;;;1.59;96.27;100251.19;5114640;28;20546;-70
2024/01/24 09:24:11;;;;;;;8.13;5.25;;;;;;;1.59;96.25;100236.97;5117879;28;20040;-70
2024/01/24 09:26:39;;;;;;;13.90;4.60;;;;;;;1.22;96.98;100161.56;5117854;28;20564;-70
2024/01/24 09:29:12;;;;;;;4.30;3.83;;;;;;;1.63;96.80;100225.38;5117484;28;20036;-70
2024/01/24 09:31:45;;;;;;;6.53;5.97;;;;;;;1.63;96.56;100223.72;5117368;28;20039;-69
2024/01/24 09:34:18;;;;;;;11.75;5.80;;;;;;;1.59;97.24;100203.41;5117688;28;20035;-69
2024/01/24 09:36:47;;;;;;;2.67;2.35;;;;;;;1.65;96.65;100176.00;5117519;28;20051;-69
2024/01/24 09:39:16;;;;;;;2.35;2.15;;;;;;;1.67;97.26;100164.34;5114393;28;20473;-72
2024/01/24 09:41:45;;;;;;;2.83;2.63;;;;;;;1.70;96.38;100156.94;5107584;28;20036;-71
2024/01/24 09:44:17;;;;;;;1.08;1.05;;;;;;;1.72;96.88;100145.28;5105056;28;20035;-71
2024/01/24 09:46:48;;;;;;;4.18;3.88;;;;;;;1.68;96.98;100118.28;5097591;28;20042;-70
2024/01/24 09:49:19;;;;;;;1.65;1.55;;;;;;;1.72;96.33;100115.09;5097064;28;20090;-69
2024/01/24 09:51:50;;;;;;;4.45;3.25;;;;;;;1.75;97.36;100126.13;5096707;28;20044;-70
2024/01/24 09:54:20;;;;;;;10.32;4.53;;;;;;;1.78;97.45;100135.44;5096894;28;20143;-69
2024/01/24 09:56:51;;;;;;;4.22;3.88;;;;;;;1.81;97.16;100125.53;5096375;28;20127;-70
2024/01/24 09:59:20;;;;;;;4.63;3.50;;;;;;;1.83;97.06;100117.25;5098001;28;20097;-70
2024/01/24 10:01:50;;;;;;;1.80;1.70;;;;;;;1.85;97.58;100119.81;5096362;28;20044;-70
2024/01/24 10:04:23;;;;;;;3.03;2.80;;;;;;;1.85;97.30;100122.31;5096793;28;20052;-68
2024/01/24 10:06:53;;;;;;;2.30;1.67;;;;;;;1.81;97.15;100117.97;5104116;28;20040;-71
2024/01/24 10:09:22;;;;;;;19.50;8.32;;;;;;;1.91;97.72;100108.34;5105234;28;20036;-69
2024/01/24 10:11:51;;;;;;;5.87;5.37;;;;;;;1.94;97.16;100112.66;5105519;28;20096;-68
2024/01/24 10:14:20;;;;;;;5.57;4.38;;;;;;;1.95;97.81;100110.19;5095851;28;20047;-70
2024/01/24 10:16:51;;;;;;;3.03;2.78;;;;;;;1.99;97.73;100096.09;5096101;28;20115;-69
2024/01/24 10:19:25;;;;;;;6.82;4.30;;;;;;;2.08;96.84;100086.38;5095751;28;20036;-69
2024/01/24 10:21:54;;;;;;;3.67;3.35;;;;;;;2.00;97.09;100072.63;5095674;28;20036;-71
2024/01/24 10:24:23;;;;;;;9.98;5.18;;;;;;;2.15;97.78;100088.31;5095941;28;20032;-68
2024/01/24 10:26:53;;;;;;;4.53;3.93;;;;;;;2.19;96.96;100095.19;5095985;28;20074;-68
2024/01/24 10:29:22;;;;;;;3.17;2.97;;;;;;;2.21;97.66;100077.66;5096097;28;20292;-68
2024/01/24 10:31:56;;;;;;;1.52;1.40;;;;;;;2.21;96.98;100065.88;5102590;28;20032;-70
2024/01/24 10:34:29;;;;;;;5.47;3.28;;;;;;;2.09;97.42;100037.72;5116133;28;20089;-70
2024/01/24 10:36:59;;;;;;;8.73;3.22;;;;;;;2.26;97.07;100061.03;5115145;28;20051;-70
2024/01/24 10:39:29;;;;;;;3.75;3.45;;;;;;;2.28;97.09;100050.22;5115035;28;20047;-69
2024/01/24 10:42:02;;;;;;;;;;;;;;;2.31;97.09;100055.38;5116931;28;20089;-68
2024/01/24 10:44:37;;;;;;;2.30;2.10;;;;;;;2.34;97.50;100068.09;5116235;28;19927;-70
2024/01/24 10:47:07;;;;;;;2.08;1.70;;;;;;;2.32;97.12;100044.50;5116039;28;20074;-70
2024/01/24 10:49:38;;;;;;;1.80;1.70;;;;;;;2.17;97.09;100011.19;5116354;28;20059;-70
2024/01/24 10:52:09;;;;;;;4.70;2.65;;;;;;;2.33;97.60;100052.91;5116336;28;20142;-69
2024/01/24 10:54:41;;;;;;;4.80;4.38;;;;;;;2.32;97.39;100043.66;5116187;28;20039;-68
2024/01/24 10:57:14;;;;;;;7.22;3.60;;;;;;;2.30;97.91;100043.59;5116121;27;20085;-70
2024/01/24 10:59:45;;;;;;;2.83;2.63;;;;;;;2.30;97.64;100033.53;5114687;28;20050;-68
2024/01/24 11:02:14;;;;;;;0.60;0.60;;;;;;;2.30;97.47;100003.31;5116057;28;20499;-68
2024/01/24 11:04:47;;;;;;;2.90;2.13;;;;;;;2.30;97.55;100013.38;5116348;27;20394;-68
2024/01/24 11:07:23;;;;;;;4.15;2.47;;;;;;;2.32;97.19;100011.78;5115068;28;20291;-68
2024/01/24 11:10:05;;;;;;;1.75;1.52;;;;;;;2.29;97.58;99996.56;5115637;28;20138;-69
2024/01/24 11:12:38;;;;;;;1.33;1.23;;;;;;;2.32;97.90;100006.75;5115972;28;20061;-68
2024/01/24 11:15:08;;;;;;;2.88;2.65;;;;;;;2.32;97.60;100001.72;5114177;28;20040;-70
2024/01/24 11:17:39;;;;;;;1.52;1.42;;;;;;;2.34;97.90;100004.28;5115975;28;20071;-69
2024/01/24 11:20:11;;;;;;;3.35;2.42;;;;;;;2.35;98.01;99980.81;5115720;28;20058;-68
2024/01/24 11:22:40;;;;;;;1.00;0.98;;;;;;;2.32;97.21;99981.56;5115658;28;20051;-69
2024/01/24 11:25:12;;;;;;;7.32;4.53;;;;;;;2.37;98.07;99984.25;5115285;28;20508;-70
2024/01/24 11:27:44;;;;;;;2.30;1.75;;;;;;;2.38;98.11;99983.44;5115562;28;20382;-70
2024/01/24 11:30:32;;;;;;;10.93;4.30;;;;;;;2.40;97.55;99972.59;5103333;28;20032;-69
2024/01/24 11:33:02;;;;;;;1.58;1.48;;;;;;;2.45;98.06;99973.63;5104545;28;20040;-69
2024/01/24 11:35:36;;;;;;;;;;;;;;;2.49;97.88;99967.91;5103570;28;20044;-69
2024/01/24 11:38:08;;;;;;;0.40;0.40;;;;;;;2.52;97.66;99965.50;5104419;28;19919;-69
2024/01/24 11:40:54;;;;;;;2.30;1.92;;;;;;;2.57;97.71;99964.00;5105764;28;20036;-71
2024/01/24 11:43:25;;;;;;;3.40;3.10;;;;;;;2.57;97.80;99943.84;5104928;28;20032;-70